< < Back
Terminal Aerodrome Forecast


Current Version              Previous Versions:   1  2  3  4  5  6  7  8  9  

Terminal Aerodrome Forecast

461
FTUS44 KMOB 181147
TAFMOB
TAF
KMOB 181147Z 1812/1912 05005KT 3SM RA BR VCSH OVC003
     FM181500 17011KT P6SM -RA OVC025
     FM181900 17008G20KT P6SM VCTS OVC015CB PROB30 1900/1906 VRB25KT
      2SM TSRA BR BKN012CB OVC015=

Latest METAR

162
SAUS80 KWBC 182000
MTRMOB
METAR KMOB 181956Z 18011KT 10SM OVC021 24/21 A2987 RMK AO2 SLP112
T02390206


USA.gov is the U.S. government's official web portal to all federal, state and local government web resources and services.